createdAt,value
2024-02-23T00:01:27.659Z,11.41
2024-02-23T00:03:54.379Z,11.41
2024-02-23T00:06:21.203Z,11.41
2024-02-23T00:08:47.895Z,11.42
2024-02-23T00:11:14.644Z,11.41
2024-02-23T00:13:41.317Z,11.41
2024-02-23T00:16:07.929Z,11.44
2024-02-23T00:18:34.602Z,11.45
2024-02-23T00:21:01.270Z,11.43
2024-02-23T00:23:27.906Z,11.46
2024-02-23T00:25:54.615Z,11.45
2024-02-23T00:28:21.460Z,11.45
2024-02-23T00:30:48.178Z,11.44
2024-02-23T00:33:14.969Z,11.43
2024-02-23T00:35:41.649Z,11.45
2024-02-23T00:38:08.960Z,11.43
2024-02-23T00:40:35.586Z,11.42
2024-02-23T00:43:02.340Z,11.42
2024-02-23T00:45:29.136Z,11.44
2024-02-23T00:47:55.868Z,11.45
2024-02-23T00:50:22.683Z,11.46
2024-02-23T00:52:49.450Z,11.46
2024-02-23T00:55:16.096Z,11.48
2024-02-23T00:57:42.732Z,11.47
2024-02-23T01:00:10.614Z,11.47
2024-02-23T01:02:38.491Z,11.46
2024-02-23T01:05:06.192Z,11.48
2024-02-23T01:07:33.842Z,11.46
2024-02-23T01:10:00.886Z,11.45
2024-02-23T01:12:27.624Z,11.43
2024-02-23T01:14:54.795Z,11.43
2024-02-23T01:17:21.457Z,11.40
2024-02-23T01:19:48.226Z,11.39
2024-02-23T01:22:16.141Z,11.40
2024-02-23T01:24:42.951Z,11.39
2024-02-23T01:27:09.740Z,11.37
2024-02-23T01:29:36.423Z,11.34
2024-02-23T01:32:03.390Z,11.34
2024-02-23T01:34:30.140Z,11.33
2024-02-23T01:36:57.166Z,11.33
2024-02-23T01:39:23.838Z,11.32
2024-02-23T01:41:50.496Z,11.31
2024-02-23T01:44:18.668Z,11.30
2024-02-23T01:46:46.201Z,11.29
2024-02-23T01:49:13.433Z,11.28
2024-02-23T01:51:40.739Z,11.27
2024-02-23T01:54:08.213Z,11.24
2024-02-23T01:56:37.778Z,11.26
2024-02-23T01:59:05.226Z,11.25
2024-02-23T02:01:32.849Z,11.23
2024-02-23T02:04:00.372Z,11.21
2024-02-23T02:06:27.263Z,11.21
2024-02-23T02:08:55.188Z,11.20
2024-02-23T02:11:22.047Z,11.18
2024-02-23T02:13:48.809Z,11.18
2024-02-23T02:16:15.490Z,11.18
2024-02-23T02:18:42.199Z,11.18
2024-02-23T02:21:08.984Z,11.16
2024-02-23T02:23:35.696Z,11.15
2024-02-23T02:26:02.589Z,11.16
2024-02-23T02:28:29.358Z,11.16
2024-02-23T02:30:56.533Z,11.16
2024-02-23T02:33:23.944Z,11.15
2024-02-23T02:35:51.246Z,11.15
2024-02-23T02:38:18.389Z,11.14
2024-02-23T02:40:45.441Z,11.15
2024-02-23T02:43:12.232Z,11.16
2024-02-23T02:45:38.870Z,11.15
2024-02-23T02:48:08.843Z,11.15
2024-02-23T02:50:35.766Z,11.13
2024-02-23T02:53:02.473Z,11.13
2024-02-23T02:55:29.224Z,11.14
2024-02-23T02:57:55.890Z,11.11
2024-02-23T03:00:22.547Z,11.11
2024-02-23T03:02:49.211Z,11.10
2024-02-23T03:05:16.310Z,11.12
2024-02-23T03:07:43.013Z,11.14
2024-02-23T03:10:09.811Z,11.15
2024-02-23T03:12:36.494Z,11.13
2024-02-23T03:15:06.771Z,11.14
2024-02-23T03:17:34.459Z,11.13
2024-02-23T03:20:01.480Z,11.14
2024-02-23T03:22:28.409Z,11.13
2024-02-23T03:24:55.126Z,11.13
2024-02-23T03:27:30.348Z,11.14
2024-02-23T03:29:57.030Z,11.14
2024-02-23T03:32:23.781Z,11.12
2024-02-23T03:34:50.520Z,11.15
2024-02-23T03:37:17.227Z,11.17
2024-02-23T03:39:43.911Z,11.17
2024-02-23T03:42:10.579Z,11.20
2024-02-23T03:44:37.335Z,11.21
2024-02-23T03:47:04.093Z,11.21
2024-02-23T03:49:30.803Z,11.22
2024-02-23T03:51:57.489Z,11.21
2024-02-23T03:54:24.126Z,11.23
2024-02-23T03:56:50.797Z,11.23
2024-02-23T03:59:17.497Z,11.22
2024-02-23T04:01:45.463Z,11.23
2024-02-23T04:04:12.218Z,11.24
2024-02-23T04:06:39.108Z,11.25
2024-02-23T04:09:06.484Z,11.26
2024-02-23T04:11:34.293Z,11.27
2024-02-23T04:14:01.945Z,11.29
2024-02-23T04:16:29.308Z,11.29
2024-02-23T04:18:57.679Z,11.26
2024-02-23T04:21:25.474Z,11.28
2024-02-23T04:23:52.620Z,11.27
2024-02-23T04:26:19.348Z,11.27
2024-02-23T04:28:46.201Z,11.29
2024-02-23T04:31:13.184Z,11.28
2024-02-23T04:33:39.920Z,11.28
2024-02-23T04:36:08.156Z,11.31
2024-02-23T04:38:37.735Z,11.34
2024-02-23T04:41:05.961Z,11.34
2024-02-23T04:43:33.088Z,11.37
2024-02-23T04:45:59.756Z,11.37
2024-02-23T04:48:26.415Z,11.38
2024-02-23T04:50:53.224Z,11.39
2024-02-23T04:53:20.696Z,11.38
2024-02-23T04:55:47.446Z,11.44
2024-02-23T04:58:14.319Z,11.45
2024-02-23T05:00:41.047Z,11.48
2024-02-23T05:03:10.368Z,11.51
2024-02-23T05:05:39.247Z,11.51
2024-02-23T05:08:06.317Z,11.53
2024-02-23T05:10:33.017Z,11.53
2024-02-23T05:13:00.081Z,11.55
2024-02-23T05:15:26.709Z,11.58
2024-02-23T05:17:53.422Z,11.60
2024-02-23T05:20:20.180Z,11.63
2024-02-23T05:22:46.841Z,11.64
2024-02-23T05:25:13.562Z,11.67
2024-02-23T05:27:40.380Z,11.71
2024-02-23T05:30:07.923Z,11.71
2024-02-23T05:32:35.012Z,11.73
2024-02-23T05:35:01.987Z,11.75
2024-02-23T05:37:28.680Z,11.77
2024-02-23T05:39:55.438Z,11.80
2024-02-23T05:42:22.243Z,11.80
2024-02-23T05:44:49.988Z,11.82
2024-02-23T05:47:16.886Z,11.82
2024-02-23T05:49:43.696Z,11.82
2024-02-23T05:52:10.784Z,11.85
2024-02-23T05:54:37.564Z,11.88
2024-02-23T05:57:04.560Z,11.89
2024-02-23T05:59:31.262Z,11.91
2024-02-23T06:01:58.632Z,11.92
2024-02-23T06:04:26.051Z,11.91
2024-02-23T06:06:52.991Z,11.92
2024-02-23T06:09:20.458Z,11.92
2024-02-23T06:11:48.112Z,11.91
2024-02-23T06:14:15.169Z,11.91
2024-02-23T06:16:41.968Z,11.93
2024-02-23T06:19:08.901Z,11.92
2024-02-23T06:21:35.709Z,11.92
2024-02-23T06:24:02.581Z,11.91
2024-02-23T06:26:29.810Z,11.93
2024-02-23T06:28:56.652Z,11.92
2024-02-23T06:31:23.310Z,11.93
2024-02-23T06:33:52.868Z,11.94
2024-02-23T06:36:19.955Z,11.96
2024-02-23T06:38:46.787Z,11.97
2024-02-23T06:41:13.692Z,11.96
2024-02-23T06:43:40.425Z,12.00
2024-02-23T06:46:10.796Z,12.03
2024-02-23T06:48:38.528Z,12.04
2024-02-23T06:51:06.228Z,12.01
2024-02-23T06:53:33.126Z,12.06
2024-02-23T06:56:00.611Z,12.07
2024-02-23T06:58:28.047Z,12.06
2024-02-23T07:00:55.183Z,12.09
2024-02-23T07:03:21.873Z,12.10
2024-02-23T07:05:49.610Z,12.12
2024-02-23T07:08:16.400Z,12.13
2024-02-23T07:10:43.210Z,12.14
2024-02-23T07:13:10.026Z,12.14
2024-02-23T07:15:37.474Z,12.13
2024-02-23T07:18:04.764Z,12.15
2024-02-23T07:20:31.729Z,12.11
2024-02-23T07:22:58.535Z,12.15
2024-02-23T07:25:25.381Z,12.16
2024-02-23T07:27:52.057Z,12.16
2024-02-23T07:30:19.130Z,12.17
2024-02-23T07:32:51.298Z,12.14
2024-02-23T07:35:20.627Z,12.20
2024-02-23T07:37:47.619Z,12.19
2024-02-23T07:40:16.636Z,12.20
2024-02-23T07:42:44.819Z,12.24
2024-02-23T07:45:12.149Z,12.23
2024-02-23T07:47:39.148Z,12.23
2024-02-23T07:50:06.672Z,12.20
2024-02-23T07:52:33.467Z,12.25
2024-02-23T07:55:01.403Z,12.25
2024-02-23T07:57:28.232Z,12.28
2024-02-23T07:59:55.219Z,12.30
2024-02-23T08:02:22.052Z,12.30
2024-02-23T08:04:49.728Z,12.30
2024-02-23T08:07:16.551Z,12.31
2024-02-23T08:09:43.494Z,12.31
2024-02-23T08:12:10.830Z,12.28
2024-02-23T08:14:37.799Z,12.29
2024-02-23T08:17:04.711Z,12.29
2024-02-23T08:19:31.416Z,12.29
2024-02-23T08:21:58.676Z,12.28
2024-02-23T08:24:27.589Z,12.27
2024-02-23T08:26:55.049Z,12.25
2024-02-23T08:29:21.945Z,12.23
2024-02-23T08:31:49.681Z,12.21
2024-02-23T08:34:18.791Z,12.22
2024-02-23T08:36:45.837Z,12.21
2024-02-23T08:39:12.601Z,12.24
2024-02-23T08:41:40.027Z,12.21
2024-02-23T08:44:06.866Z,12.22
2024-02-23T08:46:33.998Z,12.22
2024-02-23T08:49:00.811Z,12.25
2024-02-23T08:51:27.525Z,12.24
2024-02-23T08:53:55.075Z,12.25
2024-02-23T08:56:22.718Z,12.25
2024-02-23T08:58:49.933Z,12.27
2024-02-23T09:01:16.651Z,12.28
2024-02-23T09:03:43.606Z,12.27
2024-02-23T09:06:10.407Z,12.32
2024-02-23T09:08:37.250Z,12.33
2024-02-23T09:11:04.209Z,12.34
2024-02-23T09:13:31.756Z,12.35
2024-02-23T09:15:58.510Z,12.35
2024-02-23T09:18:25.324Z,12.37
2024-02-23T09:20:54.789Z,12.39
2024-02-23T09:23:21.630Z,12.41
2024-02-23T09:25:48.263Z,12.43
2024-02-23T09:28:14.946Z,12.45
2024-02-23T09:30:41.772Z,12.47
2024-02-23T09:33:09.542Z,12.50
2024-02-23T09:35:36.828Z,12.51
2024-02-23T09:38:04.110Z,12.51
2024-02-23T09:40:30.896Z,12.52
2024-02-23T09:42:58.874Z,12.53
2024-02-23T09:45:27.737Z,12.51
2024-02-23T09:47:58.571Z,12.50
2024-02-23T09:50:26.093Z,12.49
2024-02-23T09:52:53.476Z,12.46
2024-02-23T09:55:22.191Z,12.45
2024-02-23T09:57:49.809Z,12.44
2024-02-23T10:00:18.694Z,12.46
2024-02-23T10:02:46.334Z,12.47
2024-02-23T10:05:14.479Z,12.48
2024-02-23T10:07:41.852Z,12.45
2024-02-23T10:10:09.950Z,12.44
2024-02-23T10:12:36.936Z,12.43
2024-02-23T10:15:07.762Z,12.45
2024-02-23T10:17:36.566Z,12.46
2024-02-23T10:20:07.430Z,12.46
2024-02-23T10:22:34.182Z,12.47
2024-02-23T10:25:01.169Z,12.47
2024-02-23T10:27:29.225Z,12.48
2024-02-23T10:29:56.153Z,12.49
2024-02-23T10:32:24.393Z,12.48
2024-02-23T10:34:53.134Z,12.50
2024-02-23T10:37:20.580Z,12.49
2024-02-23T10:39:47.378Z,12.49
2024-02-23T10:42:15.083Z,12.51
2024-02-23T10:44:42.546Z,12.55
2024-02-23T10:47:10.083Z,12.57
2024-02-23T10:49:38.103Z,12.57
2024-02-23T10:52:05.721Z,12.60
2024-02-23T10:54:33.864Z,12.59
2024-02-23T10:57:00.832Z,12.57
2024-02-23T10:59:28.232Z,12.56
2024-02-23T11:01:58.779Z,12.54
2024-02-23T11:04:27.321Z,12.53
2024-02-23T11:06:55.957Z,12.46
2024-02-23T11:09:24.730Z,12.45
2024-02-23T11:12:00.384Z,12.41
2024-02-23T11:14:36.139Z,12.39
2024-02-23T11:17:04.767Z,12.39
2024-02-23T11:19:41.153Z,12.38
2024-02-23T11:22:19.453Z,12.41
2024-02-23T11:24:52.983Z,12.42
2024-02-23T11:27:21.747Z,12.40
2024-02-23T11:29:51.914Z,12.39
2024-02-23T11:32:19.195Z,12.42
2024-02-23T11:34:58.697Z,12.38
2024-02-23T11:37:29.594Z,12.46
2024-02-23T11:39:56.421Z,12.48
2024-02-23T11:42:24.925Z,12.50
2024-02-23T11:44:54.867Z,12.53
2024-02-23T11:47:21.530Z,12.55
2024-02-23T11:49:48.216Z,12.57
2024-02-23T11:52:14.937Z,12.63
2024-02-23T11:54:42.066Z,12.87
2024-02-23T11:57:09.224Z,12.94
2024-02-23T11:59:35.986Z,12.93
2024-02-23T12:02:06.028Z,13.22
2024-02-23T12:04:35.976Z,13.26
2024-02-23T12:07:02.758Z,13.22
2024-02-23T12:09:29.583Z,13.16
2024-02-23T12:11:56.474Z,13.12
2024-02-23T12:14:23.605Z,13.33
2024-02-23T12:16:50.245Z,13.46
2024-02-23T12:19:16.926Z,13.41
2024-02-23T12:21:47.043Z,13.46
2024-02-23T12:24:14.044Z,13.45
2024-02-23T12:26:41.088Z,13.39
2024-02-23T12:29:25.988Z,13.33
2024-02-23T12:32:03.332Z,13.33
2024-02-23T12:34:30.369Z,13.31
2024-02-23T12:36:57.033Z,13.36
2024-02-23T12:39:23.728Z,13.35
2024-02-23T12:41:51.890Z,13.33
2024-02-23T12:44:18.730Z,13.32
2024-02-23T12:46:45.405Z,13.29
2024-02-23T12:49:12.106Z,13.27
2024-02-23T12:51:38.764Z,13.26
2024-02-23T12:54:06.018Z,13.28
2024-02-23T12:56:32.791Z,13.27
2024-02-23T12:58:59.496Z,13.32
2024-02-23T13:01:26.283Z,13.40
2024-02-23T13:03:53.430Z,13.49
2024-02-23T13:06:20.208Z,13.51
2024-02-23T13:08:47.924Z,13.60
2024-02-23T13:11:14.779Z,13.61
2024-02-23T13:13:42.892Z,13.61
2024-02-23T13:16:11.716Z,13.58
2024-02-23T13:18:38.486Z,13.54
2024-02-23T13:21:05.503Z,13.49
2024-02-23T13:23:32.361Z,13.44
2024-02-23T13:25:59.361Z,13.38
2024-02-23T13:28:26.253Z,13.26
2024-02-23T13:30:53.082Z,13.21
2024-02-23T13:33:21.293Z,13.12
2024-02-23T13:35:48.352Z,13.07
2024-02-23T13:38:15.219Z,13.04
2024-02-23T13:40:41.948Z,13.01
2024-02-23T13:43:11.184Z,13.00
2024-02-23T13:45:52.751Z,13.02
2024-02-23T13:48:20.905Z,13.04
2024-02-23T13:50:48.109Z,13.05
2024-02-23T13:53:15.356Z,13.07
2024-02-23T13:55:45.217Z,13.08
2024-02-23T13:58:12.191Z,13.12
2024-02-23T14:00:38.924Z,13.14
2024-02-23T14:03:05.857Z,13.16
2024-02-23T14:05:32.622Z,13.15
2024-02-23T14:07:59.345Z,13.10
2024-02-23T14:10:26.046Z,13.04
2024-02-23T14:12:52.933Z,12.96
2024-02-23T14:15:19.607Z,12.90
2024-02-23T14:17:46.525Z,12.88
2024-02-23T14:20:13.739Z,12.84
2024-02-23T14:22:40.850Z,12.87
2024-02-23T14:25:08.989Z,12.91
2024-02-23T14:27:35.778Z,12.93
2024-02-23T14:30:02.609Z,12.95
2024-02-23T14:32:29.863Z,12.99
2024-02-23T14:34:58.744Z,13.03
2024-02-23T14:37:25.614Z,13.08
2024-02-23T14:39:53.259Z,13.11
2024-02-23T14:42:20.073Z,13.13
2024-02-23T14:44:47.303Z,13.15
2024-02-23T14:47:14.524Z,13.17
2024-02-23T14:49:41.235Z,13.17
2024-02-23T14:52:08.088Z,13.16
2024-02-23T14:54:34.789Z,13.13
2024-02-23T14:57:01.584Z,13.10
2024-02-23T14:59:28.497Z,13.05
2024-02-23T15:01:55.378Z,12.99
2024-02-23T15:04:22.136Z,12.91
2024-02-23T15:06:48.956Z,12.88
2024-02-23T15:09:15.826Z,12.86
2024-02-23T15:11:42.718Z,12.85
2024-02-23T15:14:10.462Z,12.82
2024-02-23T15:16:37.429Z,12.76
2024-02-23T15:19:06.006Z,12.69
2024-02-23T15:21:33.682Z,12.64
2024-02-23T15:24:00.974Z,12.61
2024-02-23T15:26:27.701Z,12.61
2024-02-23T15:28:54.949Z,12.62
2024-02-23T15:31:22.591Z,12.62
2024-02-23T15:33:49.488Z,12.61
2024-02-23T15:36:17.383Z,12.57
2024-02-23T15:38:44.293Z,12.54
2024-02-23T15:41:11.714Z,12.59
2024-02-23T15:43:38.558Z,12.59
2024-02-23T15:46:05.423Z,12.60
2024-02-23T15:48:32.776Z,12.59
2024-02-23T15:51:13.550Z,12.65
2024-02-23T15:53:46.674Z,12.65
2024-02-23T15:56:13.596Z,12.62
2024-02-23T15:58:40.334Z,12.64
2024-02-23T16:01:07.271Z,12.65
2024-02-23T16:03:34.150Z,12.65
2024-02-23T16:06:01.006Z,12.66
2024-02-23T16:08:47.671Z,12.63
2024-02-23T16:11:16.230Z,12.65
2024-02-23T16:13:43.631Z,12.66
2024-02-23T16:16:12.426Z,12.63
2024-02-23T16:18:39.720Z,12.61
2024-02-23T16:21:06.948Z,12.58
2024-02-23T16:23:34.003Z,12.54
2024-02-23T16:26:01.083Z,12.51
2024-02-23T16:28:27.793Z,12.49
2024-02-23T16:30:54.482Z,12.47
2024-02-23T16:33:21.222Z,12.44
2024-02-23T16:35:48.124Z,12.41
2024-02-23T16:38:15.006Z,12.37
2024-02-23T16:40:42.832Z,12.33
2024-02-23T16:43:09.489Z,12.27
2024-02-23T16:45:36.342Z,12.25
2024-02-23T16:48:07.824Z,12.21
2024-02-23T16:50:39.381Z,12.12
2024-02-23T16:53:06.711Z,12.05
2024-02-23T16:55:33.443Z,11.96
2024-02-23T16:58:00.427Z,11.91
2024-02-23T17:00:30.214Z,11.85
2024-02-23T17:02:56.922Z,11.77
2024-02-23T17:05:23.920Z,11.73
2024-02-23T17:07:50.606Z,11.66
2024-02-23T17:10:17.254Z,11.57
2024-02-23T17:12:49.313Z,11.54
2024-02-23T17:15:19.025Z,11.49
2024-02-23T17:17:45.776Z,11.42
2024-02-23T17:20:13.464Z,11.38
2024-02-23T17:22:40.277Z,11.32
2024-02-23T17:25:07.858Z,11.31
2024-02-23T17:27:35.826Z,11.28
2024-02-23T17:30:02.603Z,11.27
2024-02-23T17:32:29.428Z,11.27
2024-02-23T17:34:56.317Z,11.21
2024-02-23T17:37:25.988Z,11.22
2024-02-23T17:39:55.060Z,11.21
2024-02-23T17:42:22.211Z,11.19
2024-02-23T17:44:49.577Z,11.15
2024-02-23T17:47:19.273Z,11.16
2024-02-23T17:49:48.485Z,11.15
2024-02-23T17:52:15.748Z,11.15
2024-02-23T17:54:42.552Z,11.15
2024-02-23T17:57:09.858Z,11.13
2024-02-23T17:59:38.436Z,11.11
2024-02-23T18:02:05.618Z,11.10
2024-02-23T18:04:32.758Z,11.10
2024-02-23T18:07:01.101Z,11.09
2024-02-23T18:09:28.015Z,11.08
2024-02-23T18:11:55.527Z,11.03
2024-02-23T18:14:22.562Z,11.05
2024-02-23T18:16:49.823Z,11.01
2024-02-23T18:19:17.916Z,11.00
2024-02-23T18:21:44.826Z,10.96
2024-02-23T18:24:11.661Z,10.96
2024-02-23T18:26:42.190Z,10.94
2024-02-23T18:29:10.711Z,10.92
2024-02-23T18:31:37.940Z,10.91
2024-02-23T18:34:04.969Z,10.89
2024-02-23T18:36:31.844Z,10.86
2024-02-23T18:38:59.788Z,10.85
2024-02-23T18:41:26.699Z,10.81
2024-02-23T18:43:53.443Z,10.79
2024-02-23T18:46:20.129Z,10.79
2024-02-23T18:48:46.833Z,10.75
2024-02-23T18:51:13.707Z,10.73
2024-02-23T18:53:40.611Z,10.69
2024-02-23T18:56:09.970Z,10.68
2024-02-23T18:58:36.819Z,10.67
2024-02-23T19:01:06.937Z,10.66
2024-02-23T19:03:34.512Z,10.61
2024-02-23T19:06:01.445Z,10.62
2024-02-23T19:08:28.462Z,10.57
2024-02-23T19:10:55.405Z,10.58
2024-02-23T19:13:22.210Z,10.56
2024-02-23T19:15:49.079Z,10.56
2024-02-23T19:18:17.223Z,10.58
2024-02-23T19:20:43.964Z,10.60
2024-02-23T19:23:10.768Z,10.59
2024-02-23T19:25:38.629Z,10.58
2024-02-23T19:28:05.618Z,10.50
2024-02-23T19:30:34.496Z,10.47
2024-02-23T19:33:01.608Z,10.45
2024-02-23T19:35:28.363Z,10.43
2024-02-23T19:37:55.052Z,10.38
2024-02-23T19:40:26.350Z,10.38
2024-02-23T19:42:53.196Z,10.36
2024-02-23T19:45:20.035Z,10.34
2024-02-23T19:47:46.839Z,10.29
2024-02-23T19:50:13.820Z,10.28
2024-02-23T19:52:40.647Z,10.25
2024-02-23T19:55:07.946Z,10.23
2024-02-23T19:57:34.692Z,10.19
2024-02-23T20:00:04.790Z,10.18
2024-02-23T20:02:31.887Z,10.18
2024-02-23T20:04:59.003Z,10.17
2024-02-23T20:07:25.837Z,10.14
2024-02-23T20:09:52.676Z,10.16
2024-02-23T20:12:20.585Z,10.14
2024-02-23T20:14:48.140Z,10.12
2024-02-23T20:17:16.436Z,10.14
2024-02-23T20:19:43.400Z,10.13
2024-02-23T20:22:10.332Z,10.13
2024-02-23T20:24:39.181Z,10.13
2024-02-23T20:27:07.702Z,10.13
2024-02-23T20:29:37.116Z,10.10
2024-02-23T20:32:13.305Z,10.13
2024-02-23T20:34:47.016Z,10.10
2024-02-23T20:37:13.858Z,10.09
2024-02-23T20:39:40.615Z,10.09
2024-02-23T20:42:11.647Z,10.10
2024-02-23T20:44:39.035Z,10.12
2024-02-23T20:47:06.080Z,10.09
2024-02-23T20:49:33.008Z,10.12
2024-02-23T20:51:59.972Z,10.13
2024-02-23T20:54:26.715Z,10.11
2024-02-23T20:56:56.485Z,10.07
2024-02-23T20:59:25.970Z,10.07
2024-02-23T21:01:52.827Z,10.04
2024-02-23T21:04:21.877Z,10.02
2024-02-23T21:06:48.805Z,10.00
2024-02-23T21:09:17.317Z,9.96
2024-02-23T21:11:44.216Z,9.94
2024-02-23T21:14:11.169Z,9.95
2024-02-23T21:16:37.902Z,9.96
2024-02-23T21:19:05.141Z,9.94
2024-02-23T21:21:31.902Z,9.97
2024-02-23T21:23:59.366Z,9.99
2024-02-23T21:26:26.129Z,9.98
2024-02-23T21:28:53.124Z,10.01
2024-02-23T21:31:19.846Z,10.02
2024-02-23T21:33:52.946Z,10.03
2024-02-23T21:36:22.464Z,10.03
2024-02-23T21:38:50.022Z,10.03
2024-02-23T21:41:18.557Z,10.01
2024-02-23T21:43:45.470Z,10.00
2024-02-23T21:46:13.474Z,10.00
2024-02-23T21:48:43.971Z,10.00
2024-02-23T21:51:11.035Z,10.00
2024-02-23T21:53:39.249Z,9.98
2024-02-23T21:56:06.959Z,9.95
2024-02-23T21:58:34.767Z,9.95
2024-02-23T22:01:01.956Z,9.94
2024-02-23T22:03:29.642Z,9.93
2024-02-23T22:05:56.797Z,9.91
2024-02-23T22:08:23.605Z,9.87
2024-02-23T22:10:50.530Z,9.88
2024-02-23T22:13:17.303Z,9.88
2024-02-23T22:15:44.811Z,9.89
2024-02-23T22:18:11.751Z,9.89
2024-02-23T22:20:38.534Z,9.90
2024-02-23T22:23:05.419Z,9.90
2024-02-23T22:25:32.157Z,9.90
2024-02-23T22:28:01.598Z,9.90
2024-02-23T22:30:28.814Z,9.83
2024-02-23T22:32:55.740Z,9.86
2024-02-23T22:35:26.124Z,9.84
2024-02-23T22:37:52.856Z,9.85
2024-02-23T22:40:19.560Z,9.83
2024-02-23T22:42:46.335Z,9.82
2024-02-23T22:45:13.099Z,9.82
2024-02-23T22:47:40.954Z,9.80
2024-02-23T22:50:08.310Z,9.80
2024-02-23T22:52:35.048Z,9.79
2024-02-23T22:55:01.824Z,9.78
2024-02-23T22:57:28.487Z,9.77
2024-02-23T22:59:55.353Z,9.78
2024-02-23T23:02:22.115Z,9.79
2024-02-23T23:04:49.278Z,9.81
2024-02-23T23:07:16.200Z,9.73
2024-02-23T23:09:45.010Z,9.74
2024-02-23T23:12:12.137Z,9.75
2024-02-23T23:14:38.962Z,9.71
2024-02-23T23:17:05.839Z,9.71
2024-02-23T23:19:32.525Z,9.70
2024-02-23T23:21:59.619Z,9.68
2024-02-23T23:24:26.336Z,9.69
2024-02-23T23:26:53.049Z,9.69
2024-02-23T23:29:19.730Z,9.68
2024-02-23T23:31:46.448Z,9.67
2024-02-23T23:34:15.146Z,9.68
2024-02-23T23:36:41.864Z,9.68
2024-02-23T23:39:08.561Z,9.61
2024-02-23T23:41:35.285Z,9.63
2024-02-23T23:44:02.366Z,9.64
2024-02-23T23:46:29.134Z,9.63
2024-02-23T23:48:55.841Z,9.61
2024-02-23T23:51:22.571Z,9.61
2024-02-23T23:53:55.565Z,9.62
2024-02-23T23:56:25.494Z,9.60
2024-02-23T23:58:52.249Z,9.61
